sensor_id;sensor_type;location;lat;lon;timestamp;temperature;humidity
19870;DHT22;10097;50.862;4.696;2022-08-21T00:01:25;16.30;99.90
19870;DHT22;10097;50.862;4.696;2022-08-21T00:03:51;16.30;99.90
19870;DHT22;10097;50.862;4.696;2022-08-21T00:06:18;16.20;99.90
19870;DHT22;10097;50.862;4.696;2022-08-21T00:08:44;16.20;99.90
19870;DHT22;10097;50.862;4.696;2022-08-21T00:11:10;16.20;99.90
19870;DHT22;10097;50.862;4.696;2022-08-21T00:13:36;16.20;99.90
19870;DHT22;10097;50.862;4.696;2022-08-21T00:16:03;16.20;99.90
19870;DHT22;10097;50.862;4.696;2022-08-21T00:18:29;16.10;99.90
19870;DHT22;10097;50.862;4.696;2022-08-21T00:20:55;16.10;99.90
19870;DHT22;10097;50.862;4.696;2022-08-21T00:23:20;16.10;99.90
19870;DHT22;10097;50.862;4.696;2022-08-21T00:25:46;16.10;99.90
19870;DHT22;10097;50.862;4.696;2022-08-21T00:28:13;16.10;99.90
19870;DHT22;10097;50.862;4.696;2022-08-21T00:30:39;16.00;99.90
19870;DHT22;10097;50.862;4.696;2022-08-21T00:33:06;16.00;99.90
19870;DHT22;10097;50.862;4.696;2022-08-21T00:35:34;16.00;99.90
19870;DHT22;10097;50.862;4.696;2022-08-21T00:38:01;15.90;99.90
19870;DHT22;10097;50.862;4.696;2022-08-21T00:40:37;15.90;99.90
19870;DHT22;10097;50.862;4.696;2022-08-21T00:43:04;15.90;99.90
19870;DHT22;10097;50.862;4.696;2022-08-21T00:45:31;15.80;99.90
19870;DHT22;10097;50.862;4.696;2022-08-21T00:47:57;15.80;99.90
19870;DHT22;10097;50.862;4.696;2022-08-21T00:50:27;15.80;99.90
19870;DHT22;10097;50.862;4.696;2022-08-21T00:52:53;15.80;99.90
19870;DHT22;10097;50.862;4.696;2022-08-21T00:55:20;15.70;99.90
19870;DHT22;10097;50.862;4.696;2022-08-21T00:57:53;15.70;99.90
19870;DHT22;10097;50.862;4.696;2022-08-21T01:00:26;15.70;99.90
19870;DHT22;10097;50.862;4.696;2022-08-21T01:02:54;15.70;99.90
19870;DHT22;10097;50.862;4.696;2022-08-21T01:05:20;15.70;99.90
19870;DHT22;10097;50.862;4.696;2022-08-21T01:07:46;15.70;99.90
19870;DHT22;10097;50.862;4.696;2022-08-21T01:10:12;15.60;99.90
19870;DHT22;10097;50.862;4.696;2022-08-21T01:12:39;15.60;99.90
19870;DHT22;10097;50.862;4.696;2022-08-21T01:15:06;15.60;99.90
19870;DHT22;10097;50.862;4.696;2022-08-21T01:17:33;15.50;99.90
19870;DHT22;10097;50.862;4.696;2022-08-21T01:20:00;15.50;99.90
19870;DHT22;10097;50.862;4.696;2022-08-21T01:22:26;15.50;99.90
19870;DHT22;10097;50.862;4.696;2022-08-21T01:24:52;15.50;99.90
19870;DHT22;10097;50.862;4.696;2022-08-21T01:27:18;15.50;99.90
19870;DHT22;10097;50.862;4.696;2022-08-21T01:29:54;15.50;99.90
19870;DHT22;10097;50.862;4.696;2022-08-21T01:32:22;15.40;99.90
19870;DHT22;10097;50.862;4.696;2022-08-21T01:34:50;15.40;99.90
19870;DHT22;10097;50.862;4.696;2022-08-21T01:37:16;15.40;99.90
19870;DHT22;10097;50.862;4.696;2022-08-21T01:39:43;15.40;99.90
19870;DHT22;10097;50.862;4.696;2022-08-21T01:42:09;15.30;99.90
19870;DHT22;10097;50.862;4.696;2022-08-21T01:44:35;15.30;99.90
19870;DHT22;10097;50.862;4.696;2022-08-21T01:47:05;15.30;99.90
19870;DHT22;10097;50.862;4.696;2022-08-21T01:49:30;15.30;99.90
19870;DHT22;10097;50.862;4.696;2022-08-21T01:51:56;15.30;99.90
19870;DHT22;10097;50.862;4.696;2022-08-21T01:54:22;15.20;99.90
19870;DHT22;10097;50.862;4.696;2022-08-21T01:56:50;15.20;99.90
19870;DHT22;10097;50.862;4.696;2022-08-21T01:59:17;15.20;99.90
19870;DHT22;10097;50.862;4.696;2022-08-21T02:01:42;15.10;99.90
19870;DHT22;10097;50.862;4.696;2022-08-21T02:04:09;15.10;99.90
19870;DHT22;10097;50.862;4.696;2022-08-21T02:06:36;15.10;99.90
19870;DHT22;10097;50.862;4.696;2022-08-21T02:09:07;15.00;99.90
19870;DHT22;10097;50.862;4.696;2022-08-21T02:11:34;15.00;99.90
19870;DHT22;10097;50.862;4.696;2022-08-21T02:14:00;14.90;99.90
19870;DHT22;10097;50.862;4.696;2022-08-21T02:16:25;15.00;99.90
19870;DHT22;10097;50.862;4.696;2022-08-21T02:18:51;14.90;99.90
19870;DHT22;10097;50.862;4.696;2022-08-21T02:21:17;14.90;99.90
19870;DHT22;10097;50.862;4.696;2022-08-21T02:23:44;14.90;99.90
19870;DHT22;10097;50.862;4.696;2022-08-21T02:26:10;14.80;99.90
19870;DHT22;10097;50.862;4.696;2022-08-21T02:28:37;14.80;99.90
19870;DHT22;10097;50.862;4.696;2022-08-21T02:31:04;14.80;99.90
19870;DHT22;10097;50.862;4.696;2022-08-21T02:33:30;14.70;99.90
19870;DHT22;10097;50.862;4.696;2022-08-21T02:35:56;14.70;99.90
19870;DHT22;10097;50.862;4.696;2022-08-21T02:38:28;14.70;99.90
19870;DHT22;10097;50.862;4.696;2022-08-21T02:40:56;14.70;99.90
19870;DHT22;10097;50.862;4.696;2022-08-21T02:43:24;14.60;99.90
19870;DHT22;10097;50.862;4.696;2022-08-21T02:45:51;14.60;99.90
19870;DHT22;10097;50.862;4.696;2022-08-21T02:48:21;14.60;99.90
19870;DHT22;10097;50.862;4.696;2022-08-21T02:50:57;14.60;99.90
19870;DHT22;10097;50.862;4.696;2022-08-21T02:53:24;14.60;99.90
19870;DHT22;10097;50.862;4.696;2022-08-21T02:55:51;14.60;99.90
19870;DHT22;10097;50.862;4.696;2022-08-21T02:58:21;14.50;99.90
19870;DHT22;10097;50.862;4.696;2022-08-21T03:00:47;14.50;99.90
19870;DHT22;10097;50.862;4.696;2022-08-21T03:03:14;14.40;99.90
19870;DHT22;10097;50.862;4.696;2022-08-21T03:05:40;14.40;99.90
19870;DHT22;10097;50.862;4.696;2022-08-21T03:08:08;14.40;99.90
19870;DHT22;10097;50.862;4.696;2022-08-21T03:10:36;14.30;99.90
19870;DHT22;10097;50.862;4.696;2022-08-21T03:13:02;14.20;99.90
19870;DHT22;10097;50.862;4.696;2022-08-21T03:15:29;14.20;99.90
19870;DHT22;10097;50.862;4.696;2022-08-21T03:17:55;14.20;99.90
19870;DHT22;10097;50.862;4.696;2022-08-21T03:20:23;14.20;99.90
19870;DHT22;10097;50.862;4.696;2022-08-21T03:22:50;14.30;99.90
19870;DHT22;10097;50.862;4.696;2022-08-21T03:25:16;14.30;99.90
19870;DHT22;10097;50.862;4.696;2022-08-21T03:27:43;14.20;99.90
19870;DHT22;10097;50.862;4.696;2022-08-21T03:30:09;14.30;99.90
19870;DHT22;10097;50.862;4.696;2022-08-21T03:32:36;14.30;99.90
19870;DHT22;10097;50.862;4.696;2022-08-21T03:35:02;14.20;99.90
19870;DHT22;10097;50.862;4.696;2022-08-21T03:37:28;14.20;99.90
19870;DHT22;10097;50.862;4.696;2022-08-21T03:39:54;14.20;99.90
19870;DHT22;10097;50.862;4.696;2022-08-21T03:42:20;14.20;99.90
19870;DHT22;10097;50.862;4.696;2022-08-21T03:44:46;14.20;99.90
19870;DHT22;10097;50.862;4.696;2022-08-21T03:47:12;14.20;99.90
19870;DHT22;10097;50.862;4.696;2022-08-21T03:49:38;14.20;99.90
19870;DHT22;10097;50.862;4.696;2022-08-21T03:52:04;14.20;99.90
19870;DHT22;10097;50.862;4.696;2022-08-21T03:54:30;14.10;99.90
19870;DHT22;10097;50.862;4.696;2022-08-21T03:56:55;14.10;99.90
19870;DHT22;10097;50.862;4.696;2022-08-21T03:59:22;14.00;99.90
19870;DHT22;10097;50.862;4.696;2022-08-21T04:01:56;14.00;99.90
19870;DHT22;10097;50.862;4.696;2022-08-21T04:04:22;14.10;99.90
19870;DHT22;10097;50.862;4.696;2022-08-21T04:06:48;14.10;99.90
19870;DHT22;10097;50.862;4.696;2022-08-21T04:09:16;14.10;99.90
19870;DHT22;10097;50.862;4.696;2022-08-21T04:11:42;14.00;99.90
19870;DHT22;10097;50.862;4.696;2022-08-21T04:14:07;14.00;99.90
19870;DHT22;10097;50.862;4.696;2022-08-21T04:16:33;14.00;99.90
19870;DHT22;10097;50.862;4.696;2022-08-21T04:18:59;14.00;99.90
19870;DHT22;10097;50.862;4.696;2022-08-21T04:21:25;14.10;99.90
19870;DHT22;10097;50.862;4.696;2022-08-21T04:23:50;14.10;99.90
19870;DHT22;10097;50.862;4.696;2022-08-21T04:26:17;14.00;99.90
19870;DHT22;10097;50.862;4.696;2022-08-21T04:28:42;13.90;99.90
19870;DHT22;10097;50.862;4.696;2022-08-21T04:31:09;13.90;99.90
19870;DHT22;10097;50.862;4.696;2022-08-21T04:33:34;13.90;99.90
19870;DHT22;10097;50.862;4.696;2022-08-21T04:36:00;13.90;99.90
19870;DHT22;10097;50.862;4.696;2022-08-21T04:38:27;13.90;99.90
19870;DHT22;10097;50.862;4.696;2022-08-21T04:40:53;13.90;99.90
19870;DHT22;10097;50.862;4.696;2022-08-21T04:43:19;13.90;99.90
19870;DHT22;10097;50.862;4.696;2022-08-21T04:45:48;13.90;99.90
19870;DHT22;10097;50.862;4.696;2022-08-21T04:48:16;13.90;99.90
19870;DHT22;10097;50.862;4.696;2022-08-21T04:51:03;13.90;99.90
19870;DHT22;10097;50.862;4.696;2022-08-21T04:53:33;13.90;99.90
19870;DHT22;10097;50.862;4.696;2022-08-21T04:56:05;13.90;99.90
19870;DHT22;10097;50.862;4.696;2022-08-21T04:58:34;13.90;99.90
19870;DHT22;10097;50.862;4.696;2022-08-21T05:01:01;13.90;99.90
19870;DHT22;10097;50.862;4.696;2022-08-21T05:03:28;14.00;99.90
19870;DHT22;10097;50.862;4.696;2022-08-21T05:05:56;14.00;99.90
19870;DHT22;10097;50.862;4.696;2022-08-21T05:08:24;14.00;99.90
19870;DHT22;10097;50.862;4.696;2022-08-21T05:10:51;14.00;99.90
19870;DHT22;10097;50.862;4.696;2022-08-21T05:13:17;14.10;99.90
19870;DHT22;10097;50.862;4.696;2022-08-21T05:15:43;14.10;99.90
19870;DHT22;10097;50.862;4.696;2022-08-21T05:18:09;14.10;99.90
19870;DHT22;10097;50.862;4.696;2022-08-21T05:20:35;14.20;99.90
19870;DHT22;10097;50.862;4.696;2022-08-21T05:23:05;14.20;99.90
19870;DHT22;10097;50.862;4.696;2022-08-21T05:25:33;14.20;99.90
19870;DHT22;10097;50.862;4.696;2022-08-21T05:27:58;14.30;99.90
19870;DHT22;10097;50.862;4.696;2022-08-21T05:30:24;14.20;99.90
19870;DHT22;10097;50.862;4.696;2022-08-21T05:32:55;14.30;99.90
19870;DHT22;10097;50.862;4.696;2022-08-21T05:35:21;14.40;99.90
19870;DHT22;10097;50.862;4.696;2022-08-21T05:37:47;14.50;99.90
19870;DHT22;10097;50.862;4.696;2022-08-21T05:40:13;14.50;99.90
19870;DHT22;10097;50.862;4.696;2022-08-21T05:42:39;14.60;99.90
19870;DHT22;10097;50.862;4.696;2022-08-21T05:45:05;14.70;99.90
19870;DHT22;10097;50.862;4.696;2022-08-21T05:47:31;14.80;99.90
19870;DHT22;10097;50.862;4.696;2022-08-21T05:49:56;14.90;99.90
19870;DHT22;10097;50.862;4.696;2022-08-21T05:52:23;15.00;99.90
19870;DHT22;10097;50.862;4.696;2022-08-21T05:54:49;15.10;99.90
19870;DHT22;10097;50.862;4.696;2022-08-21T05:57:15;15.20;99.90
19870;DHT22;10097;50.862;4.696;2022-08-21T05:59:40;15.30;99.90
19870;DHT22;10097;50.862;4.696;2022-08-21T06:02:06;15.40;99.90
19870;DHT22;10097;50.862;4.696;2022-08-21T06:04:38;15.50;99.90
19870;DHT22;10097;50.862;4.696;2022-08-21T06:07:04;15.50;99.90
19870;DHT22;10097;50.862;4.696;2022-08-21T06:09:30;15.60;99.90
19870;DHT22;10097;50.862;4.696;2022-08-21T06:11:55;15.60;99.90
19870;DHT22;10097;50.862;4.696;2022-08-21T06:14:21;15.70;99.90
19870;DHT22;10097;50.862;4.696;2022-08-21T06:16:46;15.70;99.90
19870;DHT22;10097;50.862;4.696;2022-08-21T06:19:12;15.90;99.90
19870;DHT22;10097;50.862;4.696;2022-08-21T06:21:38;16.00;99.90
19870;DHT22;10097;50.862;4.696;2022-08-21T06:24:04;16.00;99.90
19870;DHT22;10097;50.862;4.696;2022-08-21T06:26:30;16.10;99.90
19870;DHT22;10097;50.862;4.696;2022-08-21T06:28:57;16.10;99.90
19870;DHT22;10097;50.862;4.696;2022-08-21T06:31:24;16.10;99.90
19870;DHT22;10097;50.862;4.696;2022-08-21T06:33:50;16.10;99.90
19870;DHT22;10097;50.862;4.696;2022-08-21T06:36:16;16.10;99.90
19870;DHT22;10097;50.862;4.696;2022-08-21T06:38:42;16.20;99.90
19870;DHT22;10097;50.862;4.696;2022-08-21T06:41:08;16.30;99.90
19870;DHT22;10097;50.862;4.696;2022-08-21T06:43:34;16.40;99.90
19870;DHT22;10097;50.862;4.696;2022-08-21T06:46:00;16.50;99.90
19870;DHT22;10097;50.862;4.696;2022-08-21T06:48:26;16.60;99.90
19870;DHT22;10097;50.862;4.696;2022-08-21T06:50:52;16.80;99.90
19870;DHT22;10097;50.862;4.696;2022-08-21T06:53:19;16.80;99.90
19870;DHT22;10097;50.862;4.696;2022-08-21T06:55:46;16.90;99.90
19870;DHT22;10097;50.862;4.696;2022-08-21T06:58:11;17.10;99.90
19870;DHT22;10097;50.862;4.696;2022-08-21T07:00:43;17.10;99.90
19870;DHT22;10097;50.862;4.696;2022-08-21T07:03:17;17.20;99.90
19870;DHT22;10097;50.862;4.696;2022-08-21T07:05:43;17.20;99.90
19870;DHT22;10097;50.862;4.696;2022-08-21T07:08:09;17.20;99.90
19870;DHT22;10097;50.862;4.696;2022-08-21T07:10:34;17.20;99.90
19870;DHT22;10097;50.862;4.696;2022-08-21T07:13:00;17.30;99.90
19870;DHT22;10097;50.862;4.696;2022-08-21T07:15:27;17.50;99.90
19870;DHT22;10097;50.862;4.696;2022-08-21T07:17:53;17.50;99.90
19870;DHT22;10097;50.862;4.696;2022-08-21T07:20:19;17.60;99.90
19870;DHT22;10097;50.862;4.696;2022-08-21T07:22:44;17.70;99.90
19870;DHT22;10097;50.862;4.696;2022-08-21T07:25:10;17.80;99.90
19870;DHT22;10097;50.862;4.696;2022-08-21T07:27:36;17.90;99.90
19870;DHT22;10097;50.862;4.696;2022-08-21T07:30:03;17.90;99.90
19870;DHT22;10097;50.862;4.696;2022-08-21T07:32:28;18.10;99.90
19870;DHT22;10097;50.862;4.696;2022-08-21T07:34:54;18.20;99.90
19870;DHT22;10097;50.862;4.696;2022-08-21T07:37:20;18.20;99.90
19870;DHT22;10097;50.862;4.696;2022-08-21T07:39:46;18.40;99.90
19870;DHT22;10097;50.862;4.696;2022-08-21T07:42:14;18.60;99.90
19870;DHT22;10097;50.862;4.696;2022-08-21T07:44:40;18.70;99.90
19870;DHT22;10097;50.862;4.696;2022-08-21T07:47:06;18.90;99.90
19870;DHT22;10097;50.862;4.696;2022-08-21T07:49:31;19.00;99.90
19870;DHT22;10097;50.862;4.696;2022-08-21T07:51:57;19.00;99.90
19870;DHT22;10097;50.862;4.696;2022-08-21T07:54:23;19.10;99.90
19870;DHT22;10097;50.862;4.696;2022-08-21T07:56:49;19.20;99.90
19870;DHT22;10097;50.862;4.696;2022-08-21T07:59:14;19.20;99.90
19870;DHT22;10097;50.862;4.696;2022-08-21T08:01:40;19.20;99.90
19870;DHT22;10097;50.862;4.696;2022-08-21T08:04:06;19.20;99.90
19870;DHT22;10097;50.862;4.696;2022-08-21T08:06:32;19.40;99.90
19870;DHT22;10097;50.862;4.696;2022-08-21T08:08:58;19.70;99.90
19870;DHT22;10097;50.862;4.696;2022-08-21T08:11:23;19.80;99.90
19870;DHT22;10097;50.862;4.696;2022-08-21T08:13:51;20.10;99.90
19870;DHT22;10097;50.862;4.696;2022-08-21T08:16:18;20.20;99.90
19870;DHT22;10097;50.862;4.696;2022-08-21T08:18:44;20.30;99.90
19870;DHT22;10097;50.862;4.696;2022-08-21T08:21:11;20.50;99.90
19870;DHT22;10097;50.862;4.696;2022-08-21T08:23:38;20.60;99.90
19870;DHT22;10097;50.862;4.696;2022-08-21T08:26:04;20.80;99.90
19870;DHT22;10097;50.862;4.696;2022-08-21T08:28:31;21.10;99.90
19870;DHT22;10097;50.862;4.696;2022-08-21T08:30:57;21.10;99.90
19870;DHT22;10097;50.862;4.696;2022-08-21T08:33:23;21.20;99.90
19870;DHT22;10097;50.862;4.696;2022-08-21T08:35:50;21.40;99.90
19870;DHT22;10097;50.862;4.696;2022-08-21T08:38:18;21.40;99.90
19870;DHT22;10097;50.862;4.696;2022-08-21T08:43:38;21.50;99.90
19870;DHT22;10097;50.862;4.696;2022-08-21T08:46:12;21.40;99.90
19870;DHT22;10097;50.862;4.696;2022-08-21T08:48:49;21.30;99.90
19870;DHT22;10097;50.862;4.696;2022-08-21T08:54:19;21.10;99.90
19870;DHT22;10097;50.862;4.696;2022-08-21T08:56:47;21.20;99.90
19870;DHT22;10097;50.862;4.696;2022-08-21T08:59:25;21.00;99.90
19870;DHT22;10097;50.862;4.696;2022-08-21T09:01:52;21.00;99.90
19870;DHT22;10097;50.862;4.696;2022-08-21T09:04:23;21.00;99.90
19870;DHT22;10097;50.862;4.696;2022-08-21T09:15:24;21.40;99.90
19870;DHT22;10097;50.862;4.696;2022-08-21T09:23:56;21.40;99.90
19870;DHT22;10097;50.862;4.696;2022-08-21T09:26:25;21.50;99.90
19870;DHT22;10097;50.862;4.696;2022-08-21T09:28:55;21.60;99.90
19870;DHT22;10097;50.862;4.696;2022-08-21T09:31:29;21.70;99.90
19870;DHT22;10097;50.862;4.696;2022-08-21T09:34:05;21.80;99.90
19870;DHT22;10097;50.862;4.696;2022-08-21T09:36:44;21.80;99.90
19870;DHT22;10097;50.862;4.696;2022-08-21T09:39:21;22.10;99.90
19870;DHT22;10097;50.862;4.696;2022-08-21T09:42:04;22.20;99.90
19870;DHT22;10097;50.862;4.696;2022-08-21T09:44:35;22.40;99.90
19870;DHT22;10097;50.862;4.696;2022-08-21T09:47:10;22.60;99.90
19870;DHT22;10097;50.862;4.696;2022-08-21T09:49:40;22.70;99.90
19870;DHT22;10097;50.862;4.696;2022-08-21T09:52:19;22.80;99.90
19870;DHT22;10097;50.862;4.696;2022-08-21T09:54:54;23.10;99.90
19870;DHT22;10097;50.862;4.696;2022-08-21T09:57:27;23.40;99.90
19870;DHT22;10097;50.862;4.696;2022-08-21T10:02:48;24.10;99.90
19870;DHT22;10097;50.862;4.696;2022-08-21T10:05:21;24.50;99.90
19870;DHT22;10097;50.862;4.696;2022-08-21T10:07:48;24.90;99.90
19870;DHT22;10097;50.862;4.696;2022-08-21T10:10:21;25.00;99.90
19870;DHT22;10097;50.862;4.696;2022-08-21T10:23:55;24.60;99.90
19870;DHT22;10097;50.862;4.696;2022-08-21T10:40:28;24.50;99.90
19870;DHT22;10097;50.862;4.696;2022-08-21T10:43:21;24.40;99.90
19870;DHT22;10097;50.862;4.696;2022-08-21T10:46:25;24.40;99.90
19870;DHT22;10097;50.862;4.696;2022-08-21T10:54:23;24.80;99.90
19870;DHT22;10097;50.862;4.696;2022-08-21T10:56:58;24.80;99.90
19870;DHT22;10097;50.862;4.696;2022-08-21T10:59:27;24.70;99.90
19870;DHT22;10097;50.862;4.696;2022-08-21T11:04:36;24.40;99.90
19870;DHT22;10097;50.862;4.696;2022-08-21T11:07:30;24.20;99.90
19870;DHT22;10097;50.862;4.696;2022-08-21T11:12:52;24.30;99.90
19870;DHT22;10097;50.862;4.696;2022-08-21T11:18:16;25.10;99.90
19870;DHT22;10097;50.862;4.696;2022-08-21T11:21:19;25.40;99.90
19870;DHT22;10097;50.862;4.696;2022-08-21T11:27:43;26.20;99.90
19870;DHT22;10097;50.862;4.696;2022-08-21T11:33:13;26.60;99.90
19870;DHT22;10097;50.862;4.696;2022-08-21T11:35:45;26.90;99.90
19870;DHT22;10097;50.862;4.696;2022-08-21T11:38:34;27.00;99.90
19870;DHT22;10097;50.862;4.696;2022-08-21T11:47:24;26.60;99.90
19870;DHT22;10097;50.862;4.696;2022-08-21T11:50:31;26.30;99.90
19870;DHT22;10097;50.862;4.696;2022-08-21T11:53:00;25.90;99.90
19870;DHT22;10097;50.862;4.696;2022-08-21T11:55:28;25.60;99.90
19870;DHT22;10097;50.862;4.696;2022-08-21T12:01:21;25.10;99.90
19870;DHT22;10097;50.862;4.696;2022-08-21T12:07:15;25.20;99.90
19870;DHT22;10097;50.862;4.696;2022-08-21T12:17:24;25.60;99.90
19870;DHT22;10097;50.862;4.696;2022-08-21T12:20:01;26.00;99.90
19870;DHT22;10097;50.862;4.696;2022-08-21T12:22:40;26.30;99.90
19870;DHT22;10097;50.862;4.696;2022-08-21T12:25:11;26.60;99.90
19870;DHT22;10097;50.862;4.696;2022-08-21T12:27:46;27.00;99.90
19870;DHT22;10097;50.862;4.696;2022-08-21T12:30:34;27.30;99.90
19870;DHT22;10097;50.862;4.696;2022-08-21T12:33:21;27.50;99.90
19870;DHT22;10097;50.862;4.696;2022-08-21T12:35:48;27.70;99.90
19870;DHT22;10097;50.862;4.696;2022-08-21T12:38:27;27.90;99.90
19870;DHT22;10097;50.862;4.696;2022-08-21T12:41:01;28.20;99.90
19870;DHT22;10097;50.862;4.696;2022-08-21T12:43:41;28.50;99.90
19870;DHT22;10097;50.862;4.696;2022-08-21T12:46:18;28.20;99.90
19870;DHT22;10097;50.862;4.696;2022-08-21T12:48:51;28.10;99.90
19870;DHT22;10097;50.862;4.696;2022-08-21T12:51:33;28.40;99.90
19870;DHT22;10097;50.862;4.696;2022-08-21T12:54:03;28.60;99.90
19870;DHT22;10097;50.862;4.696;2022-08-21T12:56:32;28.50;99.90
19870;DHT22;10097;50.862;4.696;2022-08-21T12:59:05;28.70;99.90
19870;DHT22;10097;50.862;4.696;2022-08-21T13:01:45;28.70;99.90
19870;DHT22;10097;50.862;4.696;2022-08-21T13:08:05;27.70;99.90
19870;DHT22;10097;50.862;4.696;2022-08-21T13:10:33;27.90;99.90
19870;DHT22;10097;50.862;4.696;2022-08-21T13:13:07;28.40;99.90
19870;DHT22;10097;50.862;4.696;2022-08-21T13:19:16;29.00;99.90
19870;DHT22;10097;50.862;4.696;2022-08-21T13:21:44;29.00;99.90
19870;DHT22;10097;50.862;4.696;2022-08-21T13:24:32;28.80;99.90
19870;DHT22;10097;50.862;4.696;2022-08-21T13:26:58;28.80;99.90
19870;DHT22;10097;50.862;4.696;2022-08-21T13:29:30;28.50;99.90
19870;DHT22;10097;50.862;4.696;2022-08-21T13:32:02;28.50;99.90
19870;DHT22;10097;50.862;4.696;2022-08-21T13:34:35;28.40;99.90
19870;DHT22;10097;50.862;4.696;2022-08-21T13:37:04;28.60;99.90
19870;DHT22;10097;50.862;4.696;2022-08-21T13:39:31;29.00;99.90
19870;DHT22;10097;50.862;4.696;2022-08-21T13:42:00;29.70;99.90
19870;DHT22;10097;50.862;4.696;2022-08-21T13:44:50;29.80;99.90
19870;DHT22;10097;50.862;4.696;2022-08-21T13:47:17;30.00;99.90
19870;DHT22;10097;50.862;4.696;2022-08-21T14:29:15;28.00;99.90
19870;DHT22;10097;50.862;4.696;2022-08-21T14:31:41;27.90;99.90
19870;DHT22;10097;50.862;4.696;2022-08-21T14:34:10;28.00;99.90
19870;DHT22;10097;50.862;4.696;2022-08-21T14:36:36;28.30;99.90
19870;DHT22;10097;50.862;4.696;2022-08-21T14:39:02;28.60;99.90
19870;DHT22;10097;50.862;4.696;2022-08-21T14:41:28;28.90;99.90
19870;DHT22;10097;50.862;4.696;2022-08-21T14:43:55;28.80;99.90
19870;DHT22;10097;50.862;4.696;2022-08-21T14:46:24;28.20;99.90
19870;DHT22;10097;50.862;4.696;2022-08-21T14:48:54;28.00;99.90
19870;DHT22;10097;50.862;4.696;2022-08-21T14:51:22;27.60;99.90
19870;DHT22;10097;50.862;4.696;2022-08-21T14:53:48;27.50;99.90
19870;DHT22;10097;50.862;4.696;2022-08-21T14:56:14;27.50;99.90
19870;DHT22;10097;50.862;4.696;2022-08-21T14:58:46;27.50;99.90
19870;DHT22;10097;50.862;4.696;2022-08-21T15:01:35;27.60;99.90
19870;DHT22;10097;50.862;4.696;2022-08-21T15:04:01;27.60;99.90
19870;DHT22;10097;50.862;4.696;2022-08-21T15:06:27;27.50;99.90
19870;DHT22;10097;50.862;4.696;2022-08-21T15:08:53;27.30;99.90
19870;DHT22;10097;50.862;4.696;2022-08-21T15:11:20;27.40;99.90
19870;DHT22;10097;50.862;4.696;2022-08-21T15:13:47;27.30;99.90
19870;DHT22;10097;50.862;4.696;2022-08-21T15:16:16;27.30;99.90
19870;DHT22;10097;50.862;4.696;2022-08-21T15:18:42;27.40;99.90
19870;DHT22;10097;50.862;4.696;2022-08-21T15:21:08;27.50;99.90
19870;DHT22;10097;50.862;4.696;2022-08-21T15:23:34;27.80;99.90
19870;DHT22;10097;50.862;4.696;2022-08-21T15:26:00;27.80;99.90
19870;DHT22;10097;50.862;4.696;2022-08-21T15:28:26;28.00;99.90
19870;DHT22;10097;50.862;4.696;2022-08-21T15:30:52;28.00;99.90
19870;DHT22;10097;50.862;4.696;2022-08-21T15:33:18;27.90;99.90
19870;DHT22;10097;50.862;4.696;2022-08-21T15:35:44;27.70;99.90
19870;DHT22;10097;50.862;4.696;2022-08-21T15:38:11;27.80;99.90
19870;DHT22;10097;50.862;4.696;2022-08-21T15:40:38;27.70;99.90
19870;DHT22;10097;50.862;4.696;2022-08-21T15:43:18;27.60;99.90
19870;DHT22;10097;50.862;4.696;2022-08-21T15:45:46;27.60;99.90
19870;DHT22;10097;50.862;4.696;2022-08-21T15:48:11;27.50;99.90
19870;DHT22;10097;50.862;4.696;2022-08-21T15:50:37;27.40;99.90
19870;DHT22;10097;50.862;4.696;2022-08-21T15:53:03;27.50;99.90
19870;DHT22;10097;50.862;4.696;2022-08-21T15:55:29;27.50;99.90
19870;DHT22;10097;50.862;4.696;2022-08-21T15:57:54;27.50;99.90
19870;DHT22;10097;50.862;4.696;2022-08-21T16:00:22;27.50;99.90
19870;DHT22;10097;50.862;4.696;2022-08-21T16:02:52;27.40;99.90
19870;DHT22;10097;50.862;4.696;2022-08-21T16:05:19;27.20;99.90
19870;DHT22;10097;50.862;4.696;2022-08-21T16:07:47;26.90;99.90
19870;DHT22;10097;50.862;4.696;2022-08-21T16:10:15;26.80;99.90
19870;DHT22;10097;50.862;4.696;2022-08-21T16:12:48;26.70;99.90
19870;DHT22;10097;50.862;4.696;2022-08-21T16:15:16;26.80;99.90
19870;DHT22;10097;50.862;4.696;2022-08-21T16:17:44;26.70;99.90
19870;DHT22;10097;50.862;4.696;2022-08-21T16:20:16;26.80;99.90
19870;DHT22;10097;50.862;4.696;2022-08-21T16:22:41;26.80;99.90
19870;DHT22;10097;50.862;4.696;2022-08-21T16:25:07;26.70;99.90
19870;DHT22;10097;50.862;4.696;2022-08-21T16:27:34;26.70;99.90
19870;DHT22;10097;50.862;4.696;2022-08-21T16:30:00;26.60;99.90
19870;DHT22;10097;50.862;4.696;2022-08-21T16:32:26;26.50;99.90
19870;DHT22;10097;50.862;4.696;2022-08-21T16:34:52;26.50;99.90
19870;DHT22;10097;50.862;4.696;2022-08-21T16:37:18;26.50;99.90
19870;DHT22;10097;50.862;4.696;2022-08-21T16:39:44;26.30;99.90
19870;DHT22;10097;50.862;4.696;2022-08-21T16:42:13;26.30;99.90
19870;DHT22;10097;50.862;4.696;2022-08-21T16:44:41;26.30;99.90
19870;DHT22;10097;50.862;4.696;2022-08-21T16:47:07;26.10;99.90
19870;DHT22;10097;50.862;4.696;2022-08-21T16:49:33;26.00;99.90
19870;DHT22;10097;50.862;4.696;2022-08-21T16:51:59;25.90;99.90
19870;DHT22;10097;50.862;4.696;2022-08-21T16:54:25;25.90;99.90
19870;DHT22;10097;50.862;4.696;2022-08-21T16:56:51;25.80;99.90
19870;DHT22;10097;50.862;4.696;2022-08-21T16:59:17;25.80;99.90
19870;DHT22;10097;50.862;4.696;2022-08-21T17:01:43;25.70;99.90
19870;DHT22;10097;50.862;4.696;2022-08-21T17:04:09;25.70;99.90
19870;DHT22;10097;50.862;4.696;2022-08-21T17:06:35;25.70;99.90
19870;DHT22;10097;50.862;4.696;2022-08-21T17:09:00;25.60;99.90
19870;DHT22;10097;50.862;4.696;2022-08-21T17:11:37;25.50;99.90
19870;DHT22;10097;50.862;4.696;2022-08-21T17:14:10;25.50;99.90
19870;DHT22;10097;50.862;4.696;2022-08-21T17:16:38;25.30;99.90
19870;DHT22;10097;50.862;4.696;2022-08-21T17:19:04;25.30;99.90
19870;DHT22;10097;50.862;4.696;2022-08-21T17:21:31;25.20;99.90
19870;DHT22;10097;50.862;4.696;2022-08-21T17:23:57;25.20;99.90
19870;DHT22;10097;50.862;4.696;2022-08-21T17:26:22;25.20;99.90
19870;DHT22;10097;50.862;4.696;2022-08-21T17:28:49;25.30;99.90
19870;DHT22;10097;50.862;4.696;2022-08-21T17:31:15;25.40;99.90
19870;DHT22;10097;50.862;4.696;2022-08-21T17:33:47;25.50;99.90
19870;DHT22;10097;50.862;4.696;2022-08-21T17:36:26;25.60;99.90
19870;DHT22;10097;50.862;4.696;2022-08-21T17:38:52;25.60;99.90
19870;DHT22;10097;50.862;4.696;2022-08-21T17:41:18;25.70;99.90
19870;DHT22;10097;50.862;4.696;2022-08-21T17:43:45;25.70;99.90
19870;DHT22;10097;50.862;4.696;2022-08-21T17:46:25;25.70;99.90
19870;DHT22;10097;50.862;4.696;2022-08-21T17:48:51;25.70;99.90
19870;DHT22;10097;50.862;4.696;2022-08-21T17:51:17;25.60;99.90
19870;DHT22;10097;50.862;4.696;2022-08-21T17:53:43;25.40;99.90
19870;DHT22;10097;50.862;4.696;2022-08-21T17:56:11;25.40;99.90